sensor_id;sensor_type;location;lat;lon;timestamp;temperature;humidity
35325;DHT22;35135;47.510;19.036;2023-05-21T00:01:00;23.40;53.20
35325;DHT22;35135;47.510;19.036;2023-05-21T00:03:27;23.40;52.80
35325;DHT22;35135;47.510;19.036;2023-05-21T00:05:55;23.30;52.70
35325;DHT22;35135;47.510;19.036;2023-05-21T00:08:21;23.30;52.70
35325;DHT22;35135;47.510;19.036;2023-05-21T00:10:47;23.30;52.60
35325;DHT22;35135;47.510;19.036;2023-05-21T00:13:12;23.30;53.20
35325;DHT22;35135;47.510;19.036;2023-05-21T00:15:38;23.20;52.90
35325;DHT22;35135;47.510;19.036;2023-05-21T00:18:04;23.20;53.00
35325;DHT22;35135;47.510;19.036;2023-05-21T00:20:30;23.10;52.90
35325;DHT22;35135;47.510;19.036;2023-05-21T00:23:00;23.10;53.30
35325;DHT22;35135;47.510;19.036;2023-05-21T00:25:30;23.10;53.40
35325;DHT22;35135;47.510;19.036;2023-05-21T00:27:55;23.10;53.30
35325;DHT22;35135;47.510;19.036;2023-05-21T00:30:21;23.10;53.30
35325;DHT22;35135;47.510;19.036;2023-05-21T00:32:47;23.10;53.60
35325;DHT22;35135;47.510;19.036;2023-05-21T00:35:13;23.10;53.50
35325;DHT22;35135;47.510;19.036;2023-05-21T00:37:39;23.10;53.30
35325;DHT22;35135;47.510;19.036;2023-05-21T00:40:06;23.10;53.70
35325;DHT22;35135;47.510;19.036;2023-05-21T00:42:34;23.00;53.60
35325;DHT22;35135;47.510;19.036;2023-05-21T00:45:05;23.10;53.40
35325;DHT22;35135;47.510;19.036;2023-05-21T00:47:31;23.10;53.70
35325;DHT22;35135;47.510;19.036;2023-05-21T00:49:57;23.00;53.10
35325;DHT22;35135;47.510;19.036;2023-05-21T00:52:23;23.00;53.50
35325;DHT22;35135;47.510;19.036;2023-05-21T00:54:51;23.00;53.10
35325;DHT22;35135;47.510;19.036;2023-05-21T00:57:22;23.00;53.30
35325;DHT22;35135;47.510;19.036;2023-05-21T00:59:51;23.00;53.80
35325;DHT22;35135;47.510;19.036;2023-05-21T01:02:17;23.00;53.60
35325;DHT22;35135;47.510;19.036;2023-05-21T01:04:44;23.00;53.70
35325;DHT22;35135;47.510;19.036;2023-05-21T01:07:10;23.00;53.70
35325;DHT22;35135;47.510;19.036;2023-05-21T01:09:35;23.00;53.30
35325;DHT22;35135;47.510;19.036;2023-05-21T01:12:02;23.00;53.70
35325;DHT22;35135;47.510;19.036;2023-05-21T01:14:29;23.00;53.80
35325;DHT22;35135;47.510;19.036;2023-05-21T01:16:56;23.00;53.80
35325;DHT22;35135;47.510;19.036;2023-05-21T01:19:22;23.00;53.70
35325;DHT22;35135;47.510;19.036;2023-05-21T01:21:55;23.00;53.90
35325;DHT22;35135;47.510;19.036;2023-05-21T01:24:21;23.10;53.60
35325;DHT22;35135;47.510;19.036;2023-05-21T01:26:47;23.00;53.40
35325;DHT22;35135;47.510;19.036;2023-05-21T01:29:14;23.10;53.50
35325;DHT22;35135;47.510;19.036;2023-05-21T01:34:11;23.00;53.70
35325;DHT22;35135;47.510;19.036;2023-05-21T01:36:42;23.00;53.90
35325;DHT22;35135;47.510;19.036;2023-05-21T01:39:22;23.00;53.30
35325;DHT22;35135;47.510;19.036;2023-05-21T01:41:49;22.90;53.60
35325;DHT22;35135;47.510;19.036;2023-05-21T01:44:17;22.90;53.60
35325;DHT22;35135;47.510;19.036;2023-05-21T01:46:43;22.90;53.90
35325;DHT22;35135;47.510;19.036;2023-05-21T01:49:10;23.00;53.60
35325;DHT22;35135;47.510;19.036;2023-05-21T01:51:36;23.00;53.50
35325;DHT22;35135;47.510;19.036;2023-05-21T01:54:02;23.00;53.80
35325;DHT22;35135;47.510;19.036;2023-05-21T01:56:28;22.90;53.60
35325;DHT22;35135;47.510;19.036;2023-05-21T01:58:56;22.90;53.20
35325;DHT22;35135;47.510;19.036;2023-05-21T02:01:24;22.90;53.40
35325;DHT22;35135;47.510;19.036;2023-05-21T02:03:50;22.80;53.80
35325;DHT22;35135;47.510;19.036;2023-05-21T02:06:16;22.80;53.70
35325;DHT22;35135;47.510;19.036;2023-05-21T02:08:41;22.70;54.00
35325;DHT22;35135;47.510;19.036;2023-05-21T02:11:07;22.80;53.90
35325;DHT22;35135;47.510;19.036;2023-05-21T02:13:33;22.80;54.30
35325;DHT22;35135;47.510;19.036;2023-05-21T02:15:59;22.80;54.10
35325;DHT22;35135;47.510;19.036;2023-05-21T02:18:25;22.80;54.20
35325;DHT22;35135;47.510;19.036;2023-05-21T02:20:53;22.90;53.90
35325;DHT22;35135;47.510;19.036;2023-05-21T02:23:19;22.90;53.90
35325;DHT22;35135;47.510;19.036;2023-05-21T02:25:44;22.90;54.30
35325;DHT22;35135;47.510;19.036;2023-05-21T02:28:10;22.90;53.50
35325;DHT22;35135;47.510;19.036;2023-05-21T02:30:37;22.90;53.40
35325;DHT22;35135;47.510;19.036;2023-05-21T02:33:02;22.90;53.50
35325;DHT22;35135;47.510;19.036;2023-05-21T02:35:28;22.90;53.50
35325;DHT22;35135;47.510;19.036;2023-05-21T02:37:54;22.80;54.00
35325;DHT22;35135;47.510;19.036;2023-05-21T02:40:23;22.80;53.90
35325;DHT22;35135;47.510;19.036;2023-05-21T02:42:49;22.90;54.20
35325;DHT22;35135;47.510;19.036;2023-05-21T02:45:15;22.90;54.20
35325;DHT22;35135;47.510;19.036;2023-05-21T02:47:40;22.90;53.80
35325;DHT22;35135;47.510;19.036;2023-05-21T02:50:07;22.80;53.50
35325;DHT22;35135;47.510;19.036;2023-05-21T02:52:33;22.80;54.10
35325;DHT22;35135;47.510;19.036;2023-05-21T02:54:59;22.80;54.30
35325;DHT22;35135;47.510;19.036;2023-05-21T02:57:24;22.90;54.10
35325;DHT22;35135;47.510;19.036;2023-05-21T02:59:50;22.90;54.20
35325;DHT22;35135;47.510;19.036;2023-05-21T03:02:16;22.90;53.40
35325;DHT22;35135;47.510;19.036;2023-05-21T03:04:42;22.90;53.50
35325;DHT22;35135;47.510;19.036;2023-05-21T03:07:14;22.90;54.00
35325;DHT22;35135;47.510;19.036;2023-05-21T03:09:40;22.90;54.40
35325;DHT22;35135;47.510;19.036;2023-05-21T03:12:07;22.90;53.90
35325;DHT22;35135;47.510;19.036;2023-05-21T03:14:32;22.90;54.20
35325;DHT22;35135;47.510;19.036;2023-05-21T03:16:59;22.90;54.00
35325;DHT22;35135;47.510;19.036;2023-05-21T03:19:25;22.90;54.30
35325;DHT22;35135;47.510;19.036;2023-05-21T03:21:51;22.90;54.20
35325;DHT22;35135;47.510;19.036;2023-05-21T03:24:18;23.00;54.00
35325;DHT22;35135;47.510;19.036;2023-05-21T03:26:43;23.00;53.90
35325;DHT22;35135;47.510;19.036;2023-05-21T03:29:09;23.00;53.50
35325;DHT22;35135;47.510;19.036;2023-05-21T03:31:35;23.00;53.90
35325;DHT22;35135;47.510;19.036;2023-05-21T03:34:01;23.00;53.30
35325;DHT22;35135;47.510;19.036;2023-05-21T03:36:26;23.00;53.90
35325;DHT22;35135;47.510;19.036;2023-05-21T03:38:52;23.00;54.00
35325;DHT22;35135;47.510;19.036;2023-05-21T03:41:17;23.00;53.80
35325;DHT22;35135;47.510;19.036;2023-05-21T03:43:43;23.00;53.60
35325;DHT22;35135;47.510;19.036;2023-05-21T03:46:09;23.00;53.80
35325;DHT22;35135;47.510;19.036;2023-05-21T03:48:35;23.00;53.60
35325;DHT22;35135;47.510;19.036;2023-05-21T03:51:00;23.00;53.60
35325;DHT22;35135;47.510;19.036;2023-05-21T03:53:26;22.90;53.90
35325;DHT22;35135;47.510;19.036;2023-05-21T03:55:52;22.90;53.50
35325;DHT22;35135;47.510;19.036;2023-05-21T03:58:22;22.90;53.60
35325;DHT22;35135;47.510;19.036;2023-05-21T04:00:48;22.80;53.70
35325;DHT22;35135;47.510;19.036;2023-05-21T04:03:14;22.90;54.30
35325;DHT22;35135;47.510;19.036;2023-05-21T04:05:43;22.80;54.10
35325;DHT22;35135;47.510;19.036;2023-05-21T04:08:09;22.90;53.70
35325;DHT22;35135;47.510;19.036;2023-05-21T04:10:35;22.80;54.00
35325;DHT22;35135;47.510;19.036;2023-05-21T04:13:01;22.90;54.10
35325;DHT22;35135;47.510;19.036;2023-05-21T04:15:26;22.90;54.20
35325;DHT22;35135;47.510;19.036;2023-05-21T04:17:53;22.90;54.00
35325;DHT22;35135;47.510;19.036;2023-05-21T04:20:19;22.90;53.40
35325;DHT22;35135;47.510;19.036;2023-05-21T04:22:45;23.00;54.00
35325;DHT22;35135;47.510;19.036;2023-05-21T04:25:11;23.00;53.90
35325;DHT22;35135;47.510;19.036;2023-05-21T04:27:37;23.10;53.60
35325;DHT22;35135;47.510;19.036;2023-05-21T04:30:03;23.10;53.40
35325;DHT22;35135;47.510;19.036;2023-05-21T04:32:29;23.30;53.20
35325;DHT22;35135;47.510;19.036;2023-05-21T04:34:56;23.30;53.20
35325;DHT22;35135;47.510;19.036;2023-05-21T04:37:22;23.40;52.80
35325;DHT22;35135;47.510;19.036;2023-05-21T04:39:50;23.50;52.10
35325;DHT22;35135;47.510;19.036;2023-05-21T04:42:16;23.50;52.50
35325;DHT22;35135;47.510;19.036;2023-05-21T04:44:43;23.60;52.10
35325;DHT22;35135;47.510;19.036;2023-05-21T04:47:09;23.60;52.20
35325;DHT22;35135;47.510;19.036;2023-05-21T04:49:36;23.70;52.10
35325;DHT22;35135;47.510;19.036;2023-05-21T04:52:02;23.70;51.80
35325;DHT22;35135;47.510;19.036;2023-05-21T04:54:28;23.70;51.40
35325;DHT22;35135;47.510;19.036;2023-05-21T04:56:53;23.80;51.40
35325;DHT22;35135;47.510;19.036;2023-05-21T04:59:19;23.80;51.30
35325;DHT22;35135;47.510;19.036;2023-05-21T05:01:45;23.90;51.60
35325;DHT22;35135;47.510;19.036;2023-05-21T05:04:11;23.90;51.40
35325;DHT22;35135;47.510;19.036;2023-05-21T05:06:37;24.00;51.50
35325;DHT22;35135;47.510;19.036;2023-05-21T05:09:03;24.10;50.90
35325;DHT22;35135;47.510;19.036;2023-05-21T05:11:29;24.10;51.00
35325;DHT22;35135;47.510;19.036;2023-05-21T05:13:54;24.10;50.90
35325;DHT22;35135;47.510;19.036;2023-05-21T05:16:20;24.20;50.80
35325;DHT22;35135;47.510;19.036;2023-05-21T05:18:55;24.20;50.80
35325;DHT22;35135;47.510;19.036;2023-05-21T05:21:21;24.30;50.40
35325;DHT22;35135;47.510;19.036;2023-05-21T05:23:48;24.40;50.70
35325;DHT22;35135;47.510;19.036;2023-05-21T05:26:14;24.40;50.60
35325;DHT22;35135;47.510;19.036;2023-05-21T05:28:40;24.40;50.00
35325;DHT22;35135;47.510;19.036;2023-05-21T05:31:06;24.40;50.70
35325;DHT22;35135;47.510;19.036;2023-05-21T05:33:31;24.50;50.70
35325;DHT22;35135;47.510;19.036;2023-05-21T05:35:57;24.50;50.40
35325;DHT22;35135;47.510;19.036;2023-05-21T05:38:23;24.50;50.50
35325;DHT22;35135;47.510;19.036;2023-05-21T05:40:48;24.50;50.60
35325;DHT22;35135;47.510;19.036;2023-05-21T05:43:14;24.60;50.30
35325;DHT22;35135;47.510;19.036;2023-05-21T05:45:43;24.60;50.50
35325;DHT22;35135;47.510;19.036;2023-05-21T05:48:08;24.70;50.70
35325;DHT22;35135;47.510;19.036;2023-05-21T05:50:35;24.70;50.20
35325;DHT22;35135;47.510;19.036;2023-05-21T05:53:02;24.70;49.20
35325;DHT22;35135;47.510;19.036;2023-05-21T05:55:28;24.70;49.30
35325;DHT22;35135;47.510;19.036;2023-05-21T05:57:54;24.70;48.80
35325;DHT22;35135;47.510;19.036;2023-05-21T06:00:20;24.60;49.30
35325;DHT22;35135;47.510;19.036;2023-05-21T06:02:46;24.70;49.30
35325;DHT22;35135;47.510;19.036;2023-05-21T06:05:14;24.60;49.00
35325;DHT22;35135;47.510;19.036;2023-05-21T06:07:43;24.60;48.10
35325;DHT22;35135;47.510;19.036;2023-05-21T06:10:10;24.60;48.60
35325;DHT22;35135;47.510;19.036;2023-05-21T06:12:36;24.70;48.70
35325;DHT22;35135;47.510;19.036;2023-05-21T06:15:02;24.70;48.30
35325;DHT22;35135;47.510;19.036;2023-05-21T06:17:28;24.70;48.10
35325;DHT22;35135;47.510;19.036;2023-05-21T06:19:54;24.70;48.80
35325;DHT22;35135;47.510;19.036;2023-05-21T06:22:19;24.70;49.00
35325;DHT22;35135;47.510;19.036;2023-05-21T06:24:45;24.70;48.30
35325;DHT22;35135;47.510;19.036;2023-05-21T06:27:11;24.80;48.10
35325;DHT22;35135;47.510;19.036;2023-05-21T06:29:36;24.70;47.80
35325;DHT22;35135;47.510;19.036;2023-05-21T06:32:02;24.70;48.10
35325;DHT22;35135;47.510;19.036;2023-05-21T06:34:28;24.80;48.80
35325;DHT22;35135;47.510;19.036;2023-05-21T06:36:54;24.80;48.90
35325;DHT22;35135;47.510;19.036;2023-05-21T06:39:20;24.90;48.40
35325;DHT22;35135;47.510;19.036;2023-05-21T06:41:46;24.90;48.20
35325;DHT22;35135;47.510;19.036;2023-05-21T06:44:11;25.00;48.80
35325;DHT22;35135;47.510;19.036;2023-05-21T06:46:37;25.00;49.00
35325;DHT22;35135;47.510;19.036;2023-05-21T06:49:03;25.00;48.10
35325;DHT22;35135;47.510;19.036;2023-05-21T06:51:31;25.10;48.70
35325;DHT22;35135;47.510;19.036;2023-05-21T06:53:57;25.10;48.30
35325;DHT22;35135;47.510;19.036;2023-05-21T06:56:22;25.10;48.40
35325;DHT22;35135;47.510;19.036;2023-05-21T06:58:48;25.10;48.30
35325;DHT22;35135;47.510;19.036;2023-05-21T07:01:14;25.10;47.90
35325;DHT22;35135;47.510;19.036;2023-05-21T07:03:40;25.10;48.00
35325;DHT22;35135;47.510;19.036;2023-05-21T07:06:06;25.10;47.40
35325;DHT22;35135;47.510;19.036;2023-05-21T07:08:32;25.10;48.00
35325;DHT22;35135;47.510;19.036;2023-05-21T07:10:58;25.10;47.60
35325;DHT22;35135;47.510;19.036;2023-05-21T07:13:23;25.10;47.60
35325;DHT22;35135;47.510;19.036;2023-05-21T07:15:49;25.00;47.60
35325;DHT22;35135;47.510;19.036;2023-05-21T07:18:15;25.00;47.00
35325;DHT22;35135;47.510;19.036;2023-05-21T07:20:41;25.00;47.10
35325;DHT22;35135;47.510;19.036;2023-05-21T07:23:06;25.00;47.30
35325;DHT22;35135;47.510;19.036;2023-05-21T07:25:32;25.00;47.00
35325;DHT22;35135;47.510;19.036;2023-05-21T07:27:58;24.90;47.20
35325;DHT22;35135;47.510;19.036;2023-05-21T07:30:24;25.00;47.80
35325;DHT22;35135;47.510;19.036;2023-05-21T07:32:49;25.00;47.70
35325;DHT22;35135;47.510;19.036;2023-05-21T07:35:15;25.00;47.90
35325;DHT22;35135;47.510;19.036;2023-05-21T07:37:41;25.00;47.70
35325;DHT22;35135;47.510;19.036;2023-05-21T07:40:07;25.00;47.70
35325;DHT22;35135;47.510;19.036;2023-05-21T07:42:33;25.00;48.20
35325;DHT22;35135;47.510;19.036;2023-05-21T07:44:58;25.10;47.50
35325;DHT22;35135;47.510;19.036;2023-05-21T07:47:24;25.00;47.50
35325;DHT22;35135;47.510;19.036;2023-05-21T07:49:50;25.00;47.70
35325;DHT22;35135;47.510;19.036;2023-05-21T07:52:16;25.00;48.20
35325;DHT22;35135;47.510;19.036;2023-05-21T07:54:42;25.00;48.00
35325;DHT22;35135;47.510;19.036;2023-05-21T07:57:07;25.00;47.20
35325;DHT22;35135;47.510;19.036;2023-05-21T07:59:33;25.00;47.60
35325;DHT22;35135;47.510;19.036;2023-05-21T08:01:59;24.90;47.70
35325;DHT22;35135;47.510;19.036;2023-05-21T08:04:24;25.00;48.20
35325;DHT22;35135;47.510;19.036;2023-05-21T08:06:50;25.00;47.80
35325;DHT22;35135;47.510;19.036;2023-05-21T08:09:16;25.00;47.80
35325;DHT22;35135;47.510;19.036;2023-05-21T08:11:47;25.00;48.30
35325;DHT22;35135;47.510;19.036;2023-05-21T08:14:12;25.00;48.10
35325;DHT22;35135;47.510;19.036;2023-05-21T08:16:38;25.00;48.30
35325;DHT22;35135;47.510;19.036;2023-05-21T08:19:03;25.00;48.10
35325;DHT22;35135;47.510;19.036;2023-05-21T08:21:29;25.00;47.90
35325;DHT22;35135;47.510;19.036;2023-05-21T08:23:58;24.90;47.60
35325;DHT22;35135;47.510;19.036;2023-05-21T08:26:24;24.90;48.20
35325;DHT22;35135;47.510;19.036;2023-05-21T08:28:50;25.00;48.70
35325;DHT22;35135;47.510;19.036;2023-05-21T08:31:19;24.90;48.20
35325;DHT22;35135;47.510;19.036;2023-05-21T08:33:53;24.90;48.00
35325;DHT22;35135;47.510;19.036;2023-05-21T08:36:19;25.00;48.10
35325;DHT22;35135;47.510;19.036;2023-05-21T08:38:44;24.90;48.30
35325;DHT22;35135;47.510;19.036;2023-05-21T08:41:11;24.90;47.80
35325;DHT22;35135;47.510;19.036;2023-05-21T08:43:38;24.90;48.00
35325;DHT22;35135;47.510;19.036;2023-05-21T08:46:05;24.90;48.00
35325;DHT22;35135;47.510;19.036;2023-05-21T08:48:31;24.90;48.00
35325;DHT22;35135;47.510;19.036;2023-05-21T08:50:58;24.80;48.20
35325;DHT22;35135;47.510;19.036;2023-05-21T08:53:24;24.90;48.30
35325;DHT22;35135;47.510;19.036;2023-05-21T08:55:52;24.80;48.30
35325;DHT22;35135;47.510;19.036;2023-05-21T08:58:20;24.80;48.20
35325;DHT22;35135;47.510;19.036;2023-05-21T09:00:46;24.90;48.00
35325;DHT22;35135;47.510;19.036;2023-05-21T09:03:12;24.80;48.20
35325;DHT22;35135;47.510;19.036;2023-05-21T09:05:43;24.80;48.30
35325;DHT22;35135;47.510;19.036;2023-05-21T09:10:48;24.80;48.10
35325;DHT22;35135;47.510;19.036;2023-05-21T09:13:15;24.80;48.20
35325;DHT22;35135;47.510;19.036;2023-05-21T09:15:43;24.80;48.20
35325;DHT22;35135;47.510;19.036;2023-05-21T09:18:08;24.80;48.20
35325;DHT22;35135;47.510;19.036;2023-05-21T09:20:34;24.80;48.40
35325;DHT22;35135;47.510;19.036;2023-05-21T09:23:03;24.80;48.20
35325;DHT22;35135;47.510;19.036;2023-05-21T09:25:30;24.80;47.90
35325;DHT22;35135;47.510;19.036;2023-05-21T09:27:57;24.80;47.90
35325;DHT22;35135;47.510;19.036;2023-05-21T09:30:24;24.80;48.60
35325;DHT22;35135;47.510;19.036;2023-05-21T09:32:57;24.80;48.70
35325;DHT22;35135;47.510;19.036;2023-05-21T09:35:23;24.80;48.70
35325;DHT22;35135;47.510;19.036;2023-05-21T09:37:51;24.80;48.00
35325;DHT22;35135;47.510;19.036;2023-05-21T09:40:21;24.70;47.70
35325;DHT22;35135;47.510;19.036;2023-05-21T09:42:52;24.80;48.50
35325;DHT22;35135;47.510;19.036;2023-05-21T09:47:48;24.80;48.20
35325;DHT22;35135;47.510;19.036;2023-05-21T09:50:25;24.80;48.70
35325;DHT22;35135;47.510;19.036;2023-05-21T09:52:54;24.80;48.40
35325;DHT22;35135;47.510;19.036;2023-05-21T09:55:25;24.70;48.10
35325;DHT22;35135;47.510;19.036;2023-05-21T09:57:51;24.70;48.00
35325;DHT22;35135;47.510;19.036;2023-05-21T10:00:21;24.70;47.90
35325;DHT22;35135;47.510;19.036;2023-05-21T10:03:08;24.70;47.70
35325;DHT22;35135;47.510;19.036;2023-05-21T10:05:36;24.70;48.20
35325;DHT22;35135;47.510;19.036;2023-05-21T10:08:03;24.70;48.20
35325;DHT22;35135;47.510;19.036;2023-05-21T10:10:30;24.70;48.20
35325;DHT22;35135;47.510;19.036;2023-05-21T10:13:07;24.70;48.50
35325;DHT22;35135;47.510;19.036;2023-05-21T10:15:37;24.70;48.60
35325;DHT22;35135;47.510;19.036;2023-05-21T10:18:03;24.70;48.50
35325;DHT22;35135;47.510;19.036;2023-05-21T10:20:30;24.70;48.60
35325;DHT22;35135;47.510;19.036;2023-05-21T10:22:58;24.70;48.30
35325;DHT22;35135;47.510;19.036;2023-05-21T10:25:24;24.70;48.70
35325;DHT22;35135;47.510;19.036;2023-05-21T10:27:51;24.80;48.70
35325;DHT22;35135;47.510;19.036;2023-05-21T10:30:20;24.70;48.80
35325;DHT22;35135;47.510;19.036;2023-05-21T10:32:47;24.70;48.70
35325;DHT22;35135;47.510;19.036;2023-05-21T10:35:15;24.70;47.50
35325;DHT22;35135;47.510;19.036;2023-05-21T10:37:43;24.70;47.80
35325;DHT22;35135;47.510;19.036;2023-05-21T10:40:09;24.70;48.20
35325;DHT22;35135;47.510;19.036;2023-05-21T11:01:01;24.70;47.50
35325;DHT22;35135;47.510;19.036;2023-05-21T11:03:28;24.70;47.50
35325;DHT22;35135;47.510;19.036;2023-05-21T11:05:55;24.70;47.40
35325;DHT22;35135;47.510;19.036;2023-05-21T11:08:24;24.70;47.10
35325;DHT22;35135;47.510;19.036;2023-05-21T11:10:55;24.70;47.20
35325;DHT22;35135;47.510;19.036;2023-05-21T11:13:25;24.80;48.00
35325;DHT22;35135;47.510;19.036;2023-05-21T11:21:17;24.80;47.70
35325;DHT22;35135;47.510;19.036;2023-05-21T11:26:18;24.80;48.30
35325;DHT22;35135;47.510;19.036;2023-05-21T11:29:24;24.80;47.30
35325;DHT22;35135;47.510;19.036;2023-05-21T11:31:45;24.80;47.20
35325;DHT22;35135;47.510;19.036;2023-05-21T11:34:18;24.80;46.90
35325;DHT22;35135;47.510;19.036;2023-05-21T11:36:46;24.80;47.00
35325;DHT22;35135;47.510;19.036;2023-05-21T11:39:16;24.80;47.20
35325;DHT22;35135;47.510;19.036;2023-05-21T11:44:15;24.80;47.70
35325;DHT22;35135;47.510;19.036;2023-05-21T11:46:42;24.80;47.80
35325;DHT22;35135;47.510;19.036;2023-05-21T11:49:08;24.80;47.20
35325;DHT22;35135;47.510;19.036;2023-05-21T11:51:35;24.80;47.40
35325;DHT22;35135;47.510;19.036;2023-05-21T11:54:01;24.80;46.90
35325;DHT22;35135;47.510;19.036;2023-05-21T11:56:27;24.80;46.80
35325;DHT22;35135;47.510;19.036;2023-05-21T11:58:56;24.80;47.30
35325;DHT22;35135;47.510;19.036;2023-05-21T12:01:25;24.80;47.50
35325;DHT22;35135;47.510;19.036;2023-05-21T12:03:52;24.80;47.40
35325;DHT22;35135;47.510;19.036;2023-05-21T12:06:17;24.80;47.20
35325;DHT22;35135;47.510;19.036;2023-05-21T12:08:50;24.80;47.40
35325;DHT22;35135;47.510;19.036;2023-05-21T12:11:16;24.80;47.80
35325;DHT22;35135;47.510;19.036;2023-05-21T12:13:42;24.80;47.40
35325;DHT22;35135;47.510;19.036;2023-05-21T12:16:08;24.80;46.80
35325;DHT22;35135;47.510;19.036;2023-05-21T12:18:35;24.80;45.80
35325;DHT22;35135;47.510;19.036;2023-05-21T12:21:01;24.80;46.30
35325;DHT22;35135;47.510;19.036;2023-05-21T12:23:27;24.80;45.90
35325;DHT22;35135;47.510;19.036;2023-05-21T12:25:54;24.80;47.10
35325;DHT22;35135;47.510;19.036;2023-05-21T12:28:21;24.80;46.50
35325;DHT22;35135;47.510;19.036;2023-05-21T12:30:47;24.80;47.00
35325;DHT22;35135;47.510;19.036;2023-05-21T12:33:12;24.80;47.60
35325;DHT22;35135;47.510;19.036;2023-05-21T12:35:38;24.80;46.40
35325;DHT22;35135;47.510;19.036;2023-05-21T12:38:06;24.80;46.50
35325;DHT22;35135;47.510;19.036;2023-05-21T12:40:35;24.90;47.40
35325;DHT22;35135;47.510;19.036;2023-05-21T12:43:04;24.80;46.40
35325;DHT22;35135;47.510;19.036;2023-05-21T12:45:31;24.90;46.80
35325;DHT22;35135;47.510;19.036;2023-05-21T12:48:00;24.90;47.40
35325;DHT22;35135;47.510;19.036;2023-05-21T12:50:26;24.90;47.50
35325;DHT22;35135;47.510;19.036;2023-05-21T12:52:56;24.90;47.10
35325;DHT22;35135;47.510;19.036;2023-05-21T12:55:23;24.90;47.60
35325;DHT22;35135;47.510;19.036;2023-05-21T12:58:01;24.90;46.80
35325;DHT22;35135;47.510;19.036;2023-05-21T13:00:28;24.90;47.20
35325;DHT22;35135;47.510;19.036;2023-05-21T13:02:55;24.90;47.30
35325;DHT22;35135;47.510;19.036;2023-05-21T13:05:23;25.00;46.40
35325;DHT22;35135;47.510;19.036;2023-05-21T13:07:49;24.90;46.60
35325;DHT22;35135;47.510;19.036;2023-05-21T13:10:16;25.00;47.00
35325;DHT22;35135;47.510;19.036;2023-05-21T13:12:41;25.00;47.20
35325;DHT22;35135;47.510;19.036;2023-05-21T13:15:08;24.90;47.20
35325;DHT22;35135;47.510;19.036;2023-05-21T13:17:34;24.90;47.20
35325;DHT22;35135;47.510;19.036;2023-05-21T13:20:17;24.90;46.50
35325;DHT22;35135;47.510;19.036;2023-05-21T13:22:49;24.90;47.30
35325;DHT22;35135;47.510;19.036;2023-05-21T13:25:21;25.00;47.10
35325;DHT22;35135;47.510;19.036;2023-05-21T13:27:47;25.00;46.30
35325;DHT22;35135;47.510;19.036;2023-05-21T13:30:13;25.00;47.10
35325;DHT22;35135;47.510;19.036;2023-05-21T13:32:40;25.00;46.90
35325;DHT22;35135;47.510;19.036;2023-05-21T13:35:06;25.00;47.30
35325;DHT22;35135;47.510;19.036;2023-05-21T13:37:33;25.00;47.30
35325;DHT22;35135;47.510;19.036;2023-05-21T13:40:03;25.00;47.30
35325;DHT22;35135;47.510;19.036;2023-05-21T13:42:29;25.00;47.30
35325;DHT22;35135;47.510;19.036;2023-05-21T13:44:54;24.90;47.00
35325;DHT22;35135;47.510;19.036;2023-05-21T13:47:20;24.90;46.20
35325;DHT22;35135;47.510;19.036;2023-05-21T13:49:46;24.90;47.20
35325;DHT22;35135;47.510;19.036;2023-05-21T13:52:12;24.90;47.00
35325;DHT22;35135;47.510;19.036;2023-05-21T13:54:39;25.00;46.40
35325;DHT22;35135;47.510;19.036;2023-05-21T13:57:05;25.00;47.30
35325;DHT22;35135;47.510;19.036;2023-05-21T13:59:30;25.00;47.30
35325;DHT22;35135;47.510;19.036;2023-05-21T14:01:56;25.00;47.30
35325;DHT22;35135;47.510;19.036;2023-05-21T14:04:22;24.90;47.30
35325;DHT22;35135;47.510;19.036;2023-05-21T14:06:48;25.00;47.00
35325;DHT22;35135;47.510;19.036;2023-05-21T14:09:14;25.00;46.50
35325;DHT22;35135;47.510;19.036;2023-05-21T14:11:40;25.00;46.90
35325;DHT22;35135;47.510;19.036;2023-05-21T14:14:06;25.00;47.10
35325;DHT22;35135;47.510;19.036;2023-05-21T14:16:32;25.00;47.20
35325;DHT22;35135;47.510;19.036;2023-05-21T14:18:58;25.00;47.30
35325;DHT22;35135;47.510;19.036;2023-05-21T14:21:24;25.00;47.10
35325;DHT22;35135;47.510;19.036;2023-05-21T14:23:50;25.00;47.10
35325;DHT22;35135;47.510;19.036;2023-05-21T14:26:16;25.00;47.20
35325;DHT22;35135;47.510;19.036;2023-05-21T14:28:43;25.00;46.30
35325;DHT22;35135;47.510;19.036;2023-05-21T14:31:09;25.00;46.60
35325;DHT22;35135;47.510;19.036;2023-05-21T14:33:36;25.00;47.00
35325;DHT22;35135;47.510;19.036;2023-05-21T14:36:02;25.00;47.00
35325;DHT22;35135;47.510;19.036;2023-05-21T14:38:28;25.00;47.30
35325;DHT22;35135;47.510;19.036;2023-05-21T14:40:54;25.00;47.00
35325;DHT22;35135;47.510;19.036;2023-05-21T14:43:19;25.00;47.10
35325;DHT22;35135;47.510;19.036;2023-05-21T14:45:45;25.00;47.10
35325;DHT22;35135;47.510;19.036;2023-05-21T14:48:11;25.00;47.00
35325;DHT22;35135;47.510;19.036;2023-05-21T14:50:37;25.00;47.20
35325;DHT22;35135;47.510;19.036;2023-05-21T14:53:07;25.00;47.20
35325;DHT22;35135;47.510;19.036;2023-05-21T14:55:34;25.00;47.20
35325;DHT22;35135;47.510;19.036;2023-05-21T14:58:01;25.00;47.10
35325;DHT22;35135;47.510;19.036;2023-05-21T15:00:31;25.00;47.10
35325;DHT22;35135;47.510;19.036;2023-05-21T15:02:57;25.00;47.10
35325;DHT22;35135;47.510;19.036;2023-05-21T15:05:23;25.00;47.00
35325;DHT22;35135;47.510;19.036;2023-05-21T15:07:49;25.00;47.10
35325;DHT22;35135;47.510;19.036;2023-05-21T15:10:15;25.00;47.90
35325;DHT22;35135;47.510;19.036;2023-05-21T15:12:41;25.00;47.30
35325;DHT22;35135;47.510;19.036;2023-05-21T15:15:07;25.10;47.30
35325;DHT22;35135;47.510;19.036;2023-05-21T15:17:34;25.00;47.30
35325;DHT22;35135;47.510;19.036;2023-05-21T15:20:01;25.00;47.30
35325;DHT22;35135;47.510;19.036;2023-05-21T15:22:29;25.00;46.40
35325;DHT22;35135;47.510;19.036;2023-05-21T15:24:54;25.00;46.80
35325;DHT22;35135;47.510;19.036;2023-05-21T15:27:20;25.00;46.70
35325;DHT22;35135;47.510;19.036;2023-05-21T15:29:46;25.00;47.00
35325;DHT22;35135;47.510;19.036;2023-05-21T15:32:12;25.00;47.00
35325;DHT22;35135;47.510;19.036;2023-05-21T15:34:38;25.00;46.60
35325;DHT22;35135;47.510;19.036;2023-05-21T15:37:04;25.00;46.80
35325;DHT22;35135;47.510;19.036;2023-05-21T15:39:30;25.00;46.70
35325;DHT22;35135;47.510;19.036;2023-05-21T15:41:55;25.00;47.70
35325;DHT22;35135;47.510;19.036;2023-05-21T15:44:21;25.00;47.20
35325;DHT22;35135;47.510;19.036;2023-05-21T15:46:47;25.00;47.30
35325;DHT22;35135;47.510;19.036;2023-05-21T15:49:18;25.00;47.20